createdAt,value
2022-10-12T00:01:09.129Z,8.80
2022-10-12T00:03:37.605Z,8.80
2022-10-12T00:06:12.402Z,8.70
2022-10-12T00:08:41.905Z,8.70
2022-10-12T00:11:14.833Z,8.70
2022-10-12T00:13:42.467Z,8.70
2022-10-12T00:16:12.724Z,8.70
2022-10-12T00:18:39.988Z,8.70
2022-10-12T00:21:15.856Z,8.60
2022-10-12T00:23:45.097Z,8.70
2022-10-12T00:26:20.645Z,8.70
2022-10-12T00:28:48.615Z,8.70
2022-10-12T00:31:20.980Z,8.70
2022-10-12T00:33:48.843Z,8.70
2022-10-12T00:36:25.956Z,8.70
2022-10-12T00:38:55.686Z,8.70
2022-10-12T00:41:29.632Z,8.70
2022-10-12T00:43:58.793Z,8.70
2022-10-12T00:46:41.855Z,8.70
2022-10-12T00:49:20.427Z,8.70
2022-10-12T00:51:55.616Z,8.70
2022-10-12T00:54:31.215Z,8.70
2022-10-12T00:57:01.244Z,8.70
2022-10-12T00:59:47.741Z,8.70
2022-10-12T01:02:15.465Z,8.70
2022-10-12T01:04:43.547Z,8.70
2022-10-12T01:07:11.074Z,8.70
2022-10-12T01:09:38.409Z,8.80
2022-10-12T01:12:07.951Z,8.80
2022-10-12T01:14:36.047Z,8.80
2022-10-12T01:17:23.286Z,8.80
2022-10-12T01:20:09.211Z,8.80
2022-10-12T01:22:49.546Z,8.80
2022-10-12T01:25:37.833Z,8.80
2022-10-12T01:28:45.647Z,8.90
2022-10-12T01:31:47.717Z,8.90
2022-10-12T01:34:51.362Z,9.00
2022-10-12T01:37:31.223Z,9.00
2022-10-12T01:40:06.431Z,9.00
2022-10-12T01:42:40.409Z,9.10
2022-10-12T01:45:15.471Z,9.10
2022-10-12T01:47:48.668Z,9.10
2022-10-12T01:50:18.828Z,9.00
2022-10-12T01:53:16.491Z,9.00
2022-10-12T01:56:17.741Z,9.00
2022-10-12T01:59:06.619Z,9.00
2022-10-12T02:02:05.151Z,9.00
2022-10-12T02:04:43.863Z,9.00
2022-10-12T02:07:41.619Z,8.90
2022-10-12T02:10:21.302Z,8.90
2022-10-12T02:12:51.847Z,8.90
2022-10-12T02:15:21.663Z,8.90
2022-10-12T02:17:52.837Z,8.90
2022-10-12T02:20:27.602Z,8.90
2022-10-12T02:22:55.374Z,8.80
2022-10-12T02:25:26.991Z,8.80
2022-10-12T02:28:08.418Z,8.80
2022-10-12T02:30:45.569Z,8.80
2022-10-12T02:33:42.719Z,8.80
2022-10-12T02:36:19.651Z,8.80
2022-10-12T02:39:03.032Z,8.80
2022-10-12T02:41:39.182Z,8.80
2022-10-12T02:44:13.721Z,8.80
2022-10-12T02:46:44.377Z,8.80
2022-10-12T02:49:13.691Z,8.90
2022-10-12T02:51:43.854Z,8.90
2022-10-12T02:54:11.714Z,8.90
2022-10-12T02:56:47.273Z,8.90
2022-10-12T02:59:16.273Z,9.00
2022-10-12T03:01:43.873Z,9.00
2022-10-12T03:04:11.050Z,9.00
2022-10-12T03:06:38.211Z,9.00
2022-10-12T03:09:05.546Z,9.00
2022-10-12T03:11:32.825Z,9.00
2022-10-12T03:14:00.535Z,9.00
2022-10-12T03:16:27.600Z,9.00
2022-10-12T03:18:54.772Z,9.00
2022-10-12T03:21:21.875Z,8.90
2022-10-12T03:23:48.925Z,8.90
2022-10-12T03:26:16.011Z,8.90
2022-10-12T03:28:43.246Z,8.90
2022-10-12T03:31:10.373Z,8.80
2022-10-12T03:33:37.451Z,8.80
2022-10-12T03:36:05.049Z,8.80
2022-10-12T03:38:32.356Z,8.70
2022-10-12T03:41:04.187Z,8.70
2022-10-12T03:43:34.798Z,8.60
2022-10-12T03:46:01.982Z,8.60
2022-10-12T03:48:29.117Z,8.60
2022-10-12T03:50:56.261Z,8.50
2022-10-12T03:53:23.508Z,8.50
2022-10-12T03:55:50.751Z,8.50
2022-10-12T03:58:18.864Z,8.40
2022-10-12T04:00:46.035Z,8.40
2022-10-12T04:03:13.203Z,8.40
2022-10-12T04:05:41.052Z,8.40
2022-10-12T04:08:08.230Z,8.30
2022-10-12T04:10:35.476Z,8.30
2022-10-12T04:13:02.590Z,8.30
2022-10-12T04:15:29.636Z,8.30
2022-10-12T04:17:56.699Z,8.20
2022-10-12T04:20:23.735Z,8.20
2022-10-12T04:22:50.853Z,8.20
2022-10-12T04:25:18.067Z,8.10
2022-10-12T04:27:45.306Z,8.10
2022-10-12T04:30:13.138Z,8.10
2022-10-12T04:32:40.245Z,8.00
2022-10-12T04:35:07.836Z,8.00
2022-10-12T04:37:35.077Z,8.00
2022-10-12T04:40:03.359Z,8.00
2022-10-12T04:42:30.512Z,7.90
2022-10-12T04:44:57.649Z,7.90
2022-10-12T04:47:24.789Z,7.90
2022-10-12T04:49:51.969Z,7.80
2022-10-12T04:52:19.090Z,7.80
2022-10-12T04:54:46.177Z,7.80
2022-10-12T04:57:13.331Z,7.80
2022-10-12T04:59:40.460Z,7.70
2022-10-12T05:02:07.701Z,7.70
2022-10-12T05:07:01.820Z,7.70
2022-10-12T05:09:28.909Z,7.60
2022-10-12T05:11:56.121Z,7.60
2022-10-12T05:14:23.312Z,7.60
2022-10-12T05:16:50.386Z,7.50
2022-10-12T05:19:17.536Z,7.50
2022-10-12T05:21:44.636Z,7.50
2022-10-12T05:24:11.941Z,7.50
2022-10-12T05:26:39.108Z,7.50
2022-10-12T05:29:06.200Z,7.50
2022-10-12T05:31:33.277Z,7.40
2022-10-12T05:34:00.333Z,7.40
2022-10-12T05:36:27.508Z,7.40
2022-10-12T05:38:54.613Z,7.40
2022-10-12T05:41:21.666Z,7.30
2022-10-12T05:43:48.903Z,7.30
2022-10-12T05:46:15.975Z,7.30
2022-10-12T05:49:59.999Z,7.30
2022-10-12T05:52:45.891Z,7.30
2022-10-12T05:55:12.978Z,7.20
2022-10-12T05:57:40.539Z,7.20
2022-10-12T06:00:09.648Z,7.20
2022-10-12T06:02:37.401Z,7.20
2022-10-12T06:05:05.339Z,7.20
2022-10-12T06:07:32.517Z,7.20
2022-10-12T06:10:00.457Z,7.20
2022-10-12T06:12:28.460Z,7.20
2022-10-12T06:14:55.788Z,7.20
2022-10-12T06:17:23.028Z,7.20
2022-10-12T06:19:50.110Z,7.20
2022-10-12T06:22:17.292Z,7.20
2022-10-12T06:24:44.531Z,7.20
2022-10-12T06:27:11.698Z,7.30
2022-10-12T06:29:38.843Z,7.30
2022-10-12T06:32:06.006Z,7.40
2022-10-12T06:34:33.141Z,7.40
2022-10-12T06:37:02.033Z,7.50
2022-10-12T06:39:29.425Z,7.50
2022-10-12T06:41:56.459Z,7.60
2022-10-12T06:44:23.655Z,7.70
2022-10-12T06:46:51.343Z,7.80
2022-10-12T06:49:18.468Z,7.90
2022-10-12T06:51:48.602Z,8.00
2022-10-12T06:54:15.972Z,8.10
2022-10-12T06:56:44.463Z,8.20
2022-10-12T06:59:14.928Z,8.30
2022-10-12T07:01:42.160Z,8.40
2022-10-12T07:04:09.346Z,8.60
2022-10-12T07:06:36.544Z,8.70
2022-10-12T07:09:03.677Z,8.80
2022-10-12T07:11:31.182Z,9.00
2022-10-12T07:13:58.989Z,9.10
2022-10-12T07:16:26.183Z,9.20
2022-10-12T07:18:53.497Z,9.40
2022-10-12T07:21:20.737Z,9.50
2022-10-12T07:23:47.824Z,9.60
2022-10-12T07:26:15.176Z,9.80
2022-10-12T07:28:42.736Z,9.90
2022-10-12T07:31:10.860Z,10.00
2022-10-12T07:33:39.011Z,10.10
2022-10-12T07:36:15.854Z,10.20
2022-10-12T07:38:48.673Z,10.40
2022-10-12T07:41:16.732Z,10.50
2022-10-12T07:43:44.199Z,10.60
2022-10-12T07:46:12.594Z,10.70
2022-10-12T07:48:44.495Z,10.80
2022-10-12T07:51:14.513Z,10.90
2022-10-12T07:53:41.622Z,11.00
2022-10-12T07:56:15.325Z,11.10
2022-10-12T07:58:56.965Z,11.20
2022-10-12T08:01:30.050Z,11.30
2022-10-12T08:04:01.439Z,11.50
2022-10-12T08:06:33.230Z,11.60
2022-10-12T08:09:02.008Z,11.80
2022-10-12T08:11:29.928Z,12.00
2022-10-12T08:13:57.087Z,12.10
2022-10-12T08:16:24.492Z,12.30
2022-10-12T08:18:52.085Z,12.50
2022-10-12T08:21:19.842Z,12.60
2022-10-12T08:23:50.883Z,12.80
2022-10-12T08:26:18.095Z,12.90
2022-10-12T08:28:45.509Z,13.10
2022-10-12T08:31:16.737Z,13.20
2022-10-12T08:33:44.645Z,13.30
2022-10-12T08:36:12.243Z,13.30
2022-10-12T08:38:39.493Z,13.40
2022-10-12T08:41:42.982Z,13.40
2022-10-12T08:44:12.911Z,13.50
2022-10-12T08:46:40.307Z,13.50
2022-10-12T08:49:25.479Z,13.50
2022-10-12T08:51:56.658Z,13.50
2022-10-12T08:54:29.446Z,13.50
2022-10-12T08:56:58.244Z,13.50
2022-10-12T08:59:28.669Z,13.60
2022-10-12T09:02:25.933Z,13.60
2022-10-12T09:05:07.132Z,13.60
2022-10-12T09:07:48.217Z,13.70
2022-10-12T09:10:27.023Z,13.70
2022-10-12T09:13:18.261Z,13.70
2022-10-12T09:16:03.520Z,13.80
2022-10-12T09:18:45.882Z,13.80
2022-10-12T09:21:25.104Z,13.90
2022-10-12T09:23:56.239Z,13.90
2022-10-12T09:26:39.424Z,14.00
2022-10-12T09:29:36.309Z,14.10
2022-10-12T09:32:32.639Z,14.20
2022-10-12T09:35:00.373Z,14.20
2022-10-12T09:37:35.359Z,14.40
2022-10-12T09:40:03.544Z,14.40
2022-10-12T09:42:32.458Z,14.50
2022-10-12T09:45:34.140Z,14.60
2022-10-12T09:48:24.296Z,14.80
2022-10-12T09:51:02.355Z,15.10
2022-10-12T09:53:42.673Z,15.40
2022-10-12T09:56:26.939Z,15.80
2022-10-12T09:59:01.945Z,16.30
2022-10-12T10:01:32.724Z,16.80
2022-10-12T10:04:22.940Z,17.20
2022-10-12T10:06:50.844Z,17.60
2022-10-12T10:09:29.471Z,18.00
2022-10-12T10:12:11.612Z,18.40
2022-10-12T10:14:39.168Z,18.80
2022-10-12T10:17:06.320Z,19.20
2022-10-12T10:19:33.404Z,19.50
2022-10-12T10:22:09.315Z,19.90
2022-10-12T10:24:36.608Z,20.20
2022-10-12T10:27:06.457Z,20.60
2022-10-12T10:29:39.322Z,21.00
2022-10-12T10:32:29.142Z,21.30
2022-10-12T10:35:14.487Z,21.60
2022-10-12T10:37:56.365Z,22.00
2022-10-12T10:40:28.831Z,22.20
2022-10-12T10:43:06.115Z,22.50
2022-10-12T10:45:56.830Z,22.70
2022-10-12T10:48:30.053Z,23.00
2022-10-12T10:51:04.696Z,23.20
2022-10-12T10:53:52.048Z,23.40
2022-10-12T10:56:28.932Z,23.60
2022-10-12T10:58:59.168Z,23.90
2022-10-12T11:01:38.252Z,24.10
2022-10-12T11:04:13.555Z,24.30
2022-10-12T11:06:50.566Z,24.50
2022-10-12T11:09:42.461Z,24.70
2022-10-12T11:12:31.089Z,25.00
2022-10-12T11:15:19.088Z,25.20
2022-10-12T11:18:23.720Z,25.40
2022-10-12T11:21:09.747Z,25.50
2022-10-12T11:24:08.556Z,25.60
2022-10-12T11:26:45.208Z,25.80
2022-10-12T11:29:18.111Z,25.90
2022-10-12T11:31:57.445Z,26.00
2022-10-12T11:34:27.702Z,26.00
2022-10-12T11:37:18.319Z,26.10
2022-10-12T11:39:50.066Z,26.10
2022-10-12T11:42:33.237Z,26.20
2022-10-12T11:45:07.049Z,26.10
2022-10-12T11:47:44.167Z,26.10
2022-10-12T11:50:32.310Z,26.10
2022-10-12T11:53:06.498Z,26.00
2022-10-12T11:56:16.390Z,25.90
2022-10-12T11:59:00.636Z,25.80
2022-10-12T12:01:53.297Z,25.60
2022-10-12T12:04:45.986Z,25.40
2022-10-12T12:07:47.124Z,25.20
2022-10-12T12:10:35.234Z,25.00
2022-10-12T12:13:12.888Z,24.90
2022-10-12T12:15:43.605Z,24.80
2022-10-12T12:18:21.234Z,24.70
2022-10-12T12:20:48.215Z,24.80
2022-10-12T12:23:30.300Z,25.00
2022-10-12T12:26:20.140Z,25.20
2022-10-12T12:29:09.813Z,25.30
2022-10-12T12:31:37.445Z,25.40
2022-10-12T12:34:15.936Z,25.50
2022-10-12T12:36:47.894Z,25.60
2022-10-12T12:39:33.223Z,25.70
2022-10-12T12:42:09.437Z,25.80
2022-10-12T12:44:40.647Z,26.10
2022-10-12T12:47:39.982Z,26.10
2022-10-12T12:50:01.593Z,26.10
2022-10-12T12:52:34.822Z,26.00
2022-10-12T12:55:55.957Z,25.90
2022-10-12T12:59:02.684Z,25.70
2022-10-12T13:02:17.690Z,25.40
2022-10-12T13:05:10.693Z,25.20
2022-10-12T13:08:03.131Z,25.00
2022-10-12T13:11:33.733Z,24.80
2022-10-12T13:14:47.321Z,24.60
2022-10-12T13:18:02.064Z,24.40
2022-10-12T13:20:34.861Z,24.10
2022-10-12T13:23:08.925Z,23.80
2022-10-12T13:25:57.260Z,23.60
2022-10-12T13:28:32.870Z,23.40
2022-10-12T13:31:39.759Z,23.20
2022-10-12T13:34:46.859Z,23.10
2022-10-12T13:37:17.076Z,22.80
2022-10-12T13:39:47.291Z,22.70
2022-10-12T13:42:20.388Z,22.60
2022-10-12T13:44:48.846Z,22.50
2022-10-12T13:47:26.420Z,22.40
2022-10-12T13:49:57.135Z,22.40
2022-10-12T13:52:32.325Z,22.40
2022-10-12T13:55:01.618Z,22.40
2022-10-12T13:57:43.207Z,22.50
2022-10-12T14:00:20.961Z,22.50
2022-10-12T14:03:04.251Z,22.50
2022-10-12T14:05:34.076Z,22.50
2022-10-12T14:08:19.682Z,22.50
2022-10-12T14:10:49.613Z,22.50
2022-10-12T14:13:32.247Z,22.50
2022-10-12T14:16:01.862Z,22.60
2022-10-12T14:18:44.940Z,22.70
2022-10-12T14:21:20.364Z,22.80
2022-10-12T14:23:51.430Z,23.00
2022-10-12T14:26:42.381Z,23.20
2022-10-12T14:29:44.309Z,23.50
2022-10-12T14:32:11.237Z,23.70
2022-10-12T14:35:14.213Z,23.90
2022-10-12T14:37:41.378Z,24.00
2022-10-12T14:40:33.818Z,24.10
2022-10-12T14:43:14.862Z,24.10
2022-10-12T14:45:42.136Z,24.20
2022-10-12T14:48:22.920Z,24.20
2022-10-12T14:50:50.837Z,24.30
2022-10-12T14:53:17.924Z,24.30
2022-10-12T14:55:50.853Z,24.20
2022-10-12T14:58:20.917Z,24.10
2022-10-12T15:00:48.743Z,24.00
2022-10-12T15:03:17.980Z,23.70
2022-10-12T15:05:44.971Z,23.50
2022-10-12T15:08:12.043Z,23.30
2022-10-12T15:10:39.085Z,23.10
2022-10-12T15:13:06.325Z,22.90
2022-10-12T15:15:45.221Z,22.80
2022-10-12T15:18:12.414Z,22.70
2022-10-12T15:20:43.166Z,22.60
2022-10-12T15:23:12.960Z,22.50
2022-10-12T15:25:54.659Z,22.40
2022-10-12T15:28:23.535Z,22.30
2022-10-12T15:31:16.377Z,22.20
2022-10-12T15:33:43.403Z,22.10
2022-10-12T15:36:11.218Z,21.90
2022-10-12T15:38:38.395Z,21.70
2022-10-12T15:41:06.241Z,21.50
2022-10-12T15:43:35.708Z,21.40
2022-10-12T15:46:13.073Z,21.30
2022-10-12T15:48:40.384Z,21.10
2022-10-12T15:51:24.346Z,21.00
2022-10-12T15:53:57.749Z,20.80
2022-10-12T15:56:24.689Z,20.70
2022-10-12T15:58:51.895Z,20.60
2022-10-12T16:01:20.615Z,20.50
2022-10-12T16:03:49.416Z,20.40
2022-10-12T16:06:16.916Z,20.30
2022-10-12T16:08:44.032Z,20.20
2022-10-12T16:11:16.549Z,20.10
2022-10-12T16:13:51.034Z,20.00
2022-10-12T16:16:21.029Z,19.90
2022-10-12T16:18:48.129Z,19.80
2022-10-12T16:21:15.396Z,19.80
2022-10-12T16:23:42.465Z,19.70
2022-10-12T16:26:47.433Z,19.60
2022-10-12T16:29:14.453Z,19.50
2022-10-12T16:32:00.547Z,19.40
2022-10-12T16:34:31.349Z,19.30
2022-10-12T16:36:58.971Z,19.20
2022-10-12T16:39:27.697Z,19.10
2022-10-12T16:41:54.916Z,19.00
2022-10-12T16:44:22.278Z,18.90
2022-10-12T16:46:49.491Z,18.90
2022-10-12T16:49:16.593Z,18.80
2022-10-12T16:51:43.672Z,18.70
2022-10-12T16:54:11.315Z,18.60
2022-10-12T16:56:39.917Z,18.50
2022-10-12T16:59:07.262Z,18.40
2022-10-12T17:01:34.345Z,18.30
2022-10-12T17:04:02.416Z,18.20
2022-10-12T17:06:30.258Z,18.10
2022-10-12T17:09:01.759Z,18.00
2022-10-12T17:11:28.974Z,17.90
2022-10-12T17:13:57.206Z,17.70
2022-10-12T17:16:42.928Z,17.60
2022-10-12T17:19:10.042Z,17.50
2022-10-12T17:21:42.042Z,17.40
2022-10-12T17:24:12.415Z,17.30
2022-10-12T17:26:41.079Z,17.10
2022-10-12T17:29:12.200Z,17.00
2022-10-12T17:31:39.807Z,16.90
2022-10-12T17:34:07.507Z,16.70
2022-10-12T17:36:36.015Z,16.70
2022-10-12T17:39:03.414Z,16.50
2022-10-12T17:41:30.752Z,16.40
2022-10-12T17:43:58.852Z,16.30
2022-10-12T17:46:26.154Z,16.20
2022-10-12T17:48:53.594Z,16.10
2022-10-12T17:51:20.817Z,16.00
2022-10-12T17:53:48.068Z,15.90
2022-10-12T17:56:17.521Z,15.70
2022-10-12T17:58:44.783Z,15.60
2022-10-12T18:01:16.134Z,15.50
2022-10-12T18:03:46.344Z,15.40
2022-10-12T18:06:17.948Z,15.30
2022-10-12T18:08:45.215Z,15.10
2022-10-12T18:11:14.864Z,15.00
2022-10-12T18:14:03.076Z,14.90
2022-10-12T18:16:34.114Z,14.80
2022-10-12T18:19:04.158Z,14.80
2022-10-12T18:21:34.305Z,14.70
2022-10-12T18:24:05.084Z,14.60
2022-10-12T18:26:33.276Z,14.60
2022-10-12T18:29:02.208Z,14.50
2022-10-12T18:31:30.582Z,14.40
2022-10-12T18:33:58.777Z,14.30
2022-10-12T18:36:27.554Z,14.30
2022-10-12T18:38:54.828Z,14.20
2022-10-12T18:41:25.899Z,14.20
2022-10-12T18:43:58.921Z,14.10
2022-10-12T18:46:29.307Z,14.10
2022-10-12T18:48:57.952Z,14.10
2022-10-12T18:51:29.965Z,14.00
2022-10-12T18:53:58.536Z,14.00
2022-10-12T18:56:26.925Z,14.00
2022-10-12T18:58:56.295Z,14.00
2022-10-12T19:01:27.226Z,14.00
2022-10-12T19:03:56.659Z,14.00
2022-10-12T19:06:35.132Z,14.00
2022-10-12T19:09:03.058Z,14.00
2022-10-12T19:11:31.469Z,14.00
2022-10-12T19:14:03.157Z,14.00
2022-10-12T19:16:32.298Z,14.00
2022-10-12T19:19:09.368Z,14.00
2022-10-12T19:21:36.585Z,14.00
2022-10-12T19:24:06.648Z,14.00
2022-10-12T19:26:34.794Z,13.90
2022-10-12T19:29:02.515Z,13.90
2022-10-12T19:31:34.120Z,13.80
2022-10-12T19:34:06.798Z,13.80
2022-10-12T19:36:35.633Z,13.70
2022-10-12T19:39:07.451Z,13.70
2022-10-12T19:41:35.568Z,13.60
2022-10-12T19:44:03.330Z,13.50
2022-10-12T19:46:30.515Z,13.50
2022-10-12T19:49:00.791Z,13.40
2022-10-12T19:51:32.100Z,13.40
2022-10-12T19:54:03.833Z,13.30
2022-10-12T19:56:32.539Z,13.30
2022-10-12T19:58:59.987Z,13.20
2022-10-12T20:01:32.356Z,13.20
2022-10-12T20:04:00.063Z,13.20
2022-10-12T20:06:31.039Z,13.10
2022-10-12T20:09:01.563Z,13.00
2022-10-12T20:11:30.161Z,13.00
2022-10-12T20:13:58.235Z,12.90
2022-10-12T20:16:28.205Z,12.90
2022-10-12T20:18:58.305Z,12.80
2022-10-12T20:21:25.940Z,12.80
2022-10-12T20:23:53.353Z,12.70
2022-10-12T20:26:25.069Z,12.70
2022-10-12T20:28:54.152Z,12.60
2022-10-12T20:31:23.951Z,12.60
2022-10-12T20:33:53.489Z,12.50
2022-10-12T20:36:28.767Z,12.50
2022-10-12T20:38:57.939Z,12.40
2022-10-12T20:41:26.447Z,12.40
2022-10-12T20:44:00.949Z,12.40
2022-10-12T20:46:30.160Z,12.30
2022-10-12T20:49:01.021Z,12.30
2022-10-12T20:51:32.868Z,12.30
2022-10-12T20:54:02.213Z,12.20
2022-10-12T20:56:31.714Z,12.20
2022-10-12T20:59:00.838Z,12.20
2022-10-12T21:01:28.684Z,12.20
2022-10-12T21:03:56.439Z,12.20
2022-10-12T21:06:24.119Z,12.20
2022-10-12T21:09:16.123Z,12.20
2022-10-12T21:11:43.887Z,12.10
2022-10-12T21:14:14.707Z,12.20
2022-10-12T21:16:42.113Z,12.20
2022-10-12T21:19:17.467Z,12.20
2022-10-12T21:21:46.744Z,12.20
2022-10-12T21:24:14.786Z,12.20
2022-10-12T21:26:44.671Z,12.30
2022-10-12T21:29:14.964Z,12.30
2022-10-12T21:31:42.045Z,12.40
2022-10-12T21:34:11.491Z,12.40
2022-10-12T21:36:39.410Z,12.40
2022-10-12T21:39:17.663Z,12.50
2022-10-12T21:41:45.205Z,12.50
2022-10-12T21:44:12.914Z,12.50
2022-10-12T21:46:40.408Z,12.50
2022-10-12T21:49:08.563Z,12.50
2022-10-12T21:51:36.841Z,12.50
2022-10-12T21:54:07.726Z,12.50
2022-10-12T21:56:37.221Z,12.50
2022-10-12T21:59:06.286Z,12.50
2022-10-12T22:01:37.087Z,12.50
2022-10-12T22:04:10.501Z,12.50
2022-10-12T22:06:37.725Z,12.50
2022-10-12T22:09:09.259Z,12.60
2022-10-12T22:11:37.618Z,12.60
2022-10-12T22:14:09.148Z,12.60
2022-10-12T22:16:37.098Z,12.70
2022-10-12T22:19:08.599Z,12.70
2022-10-12T22:21:36.919Z,12.70
2022-10-12T22:24:04.556Z,12.80
2022-10-12T22:26:32.491Z,12.80
2022-10-12T22:29:04.899Z,12.80
2022-10-12T22:31:32.077Z,12.80
2022-10-12T22:33:59.237Z,12.90
2022-10-12T22:36:26.552Z,12.90
2022-10-12T22:38:53.815Z,12.90
2022-10-12T22:41:23.271Z,12.90
2022-10-12T22:43:57.080Z,12.90
2022-10-12T22:46:27.037Z,13.00
2022-10-12T22:48:54.977Z,13.00
2022-10-12T22:51:32.248Z,13.00
2022-10-12T22:54:00.087Z,13.00
2022-10-12T22:56:28.537Z,13.00
2022-10-12T22:59:01.694Z,13.10
2022-10-12T23:01:29.636Z,13.10
2022-10-12T23:03:56.984Z,13.10
2022-10-12T23:06:25.736Z,13.10
2022-10-12T23:08:53.111Z,13.10
2022-10-12T23:11:26.691Z,13.10
2022-10-12T23:13:55.382Z,13.10
2022-10-12T23:16:29.634Z,13.10
2022-10-12T23:19:00.368Z,13.10
2022-10-12T23:21:29.831Z,13.20
2022-10-12T23:23:59.340Z,13.20
2022-10-12T23:26:28.673Z,13.20
2022-10-12T23:28:56.706Z,13.20
2022-10-12T23:31:27.985Z,13.20
2022-10-12T23:34:06.387Z,13.20
2022-10-12T23:36:33.794Z,13.20
2022-10-12T23:39:03.203Z,13.20
2022-10-12T23:41:30.524Z,13.20
2022-10-12T23:43:58.452Z,13.30
2022-10-12T23:46:25.567Z,13.30
2022-10-12T23:48:52.760Z,13.30
2022-10-12T23:51:19.888Z,13.40
2022-10-12T23:53:47.134Z,13.40
2022-10-12T23:56:14.326Z,13.40
2022-10-12T23:58:41.478Z,13.50
